Time;durP1;ratioP1;P1;durP2;ratioP2;P2;SDS_P1;SDS_P2;PMS_P1;PMS_P2;Temp;Humidity;BMP_temperature;BMP_pressure;BME280_temperature;BME280_humidity;BME280_pressure;Samples;Min_cycle;Max_cycle;Signal;HPM_P1;HPM_P2
2021/01/21 05:30:59;;;;;;;2.87;1.60;;;11.20;1.00;;;;;;655776;23;22038;31
2021/01/21 05:36:54;;;;;;;3.10;1.43;;;11.00;1.00;;;;;;4844164;29;20447;-94
2021/01/21 10:00:45;;;;;;;6.00;3.00;;;8.30;1.00;;;;;;4882943;29;20810;-92
2021/01/21 10:03:14;;;;;;;3.83;2.50;;;8.30;1.00;;;;;;4868820;29;20493;-92
2021/01/21 10:05:41;;;;;;;7.90;3.47;;;8.40;1.00;;;;;;4878768;29;20477;-92
2021/01/21 10:08:08;;;;;;;5.10;2.73;;;8.50;1.00;;;;;;4877911;29;20541;-92
2021/01/21 10:10:35;;;;;;;5.93;2.73;;;8.40;1.00;;;;;;4885423;29;20490;-92
2021/01/21 10:13:02;;;;;;;5.33;2.50;;;8.50;1.00;;;;;;4885242;29;20770;-92
2021/01/21 10:15:29;;;;;;;11.73;2.67;;;8.30;1.00;;;;;;4884895;29;20523;-92
2021/01/21 10:17:57;;;;;;;7.70;2.57;;;8.50;1.00;;;;;;4883303;29;20463;-92
2021/01/21 10:20:23;;;;;;;3.07;2.33;;;8.40;1.00;;;;;;4884222;29;20937;-92
2021/01/21 10:22:53;;;;;;;3.63;2.40;;;8.60;1.00;;;;;;4883738;29;20857;-91
2021/01/21 10:25:20;;;;;;;5.00;2.30;;;8.70;1.00;;;;;;4877932;29;20487;-92
2021/01/21 10:27:49;;;;;;;5.80;2.60;;;8.60;1.00;;;;;;4883979;29;20506;-92
2021/01/21 10:30:19;;;;;;;5.73;2.77;;;8.40;1.00;;;;;;4878404;29;20514;-92
2021/01/21 10:32:49;;;;;;;5.60;2.30;;;8.40;1.00;;;;;;4879118;29;20478;-91
2021/01/21 10:35:17;;;;;;;4.03;2.87;;;8.60;1.00;;;;;;4884931;29;20489;-92
2021/01/21 10:37:44;;;;;;;4.00;2.23;;;8.50;1.00;;;;;;4884401;29;20570;-92
2021/01/21 10:40:14;;;;;;;7.40;3.33;;;8.30;1.00;;;;;;4884749;29;20489;-92
2021/01/21 10:42:42;;;;;;;11.43;2.83;;;8.00;1.00;;;;;;4884855;29;20933;-91
2021/01/21 10:45:10;;;;;;;3.90;2.43;;;7.70;1.00;;;;;;4884807;29;20849;-91
2021/01/21 10:47:36;;;;;;;7.30;2.93;;;7.80;1.00;;;;;;4884100;29;20478;-92
2021/01/21 10:50:04;;;;;;;8.73;3.13;;;7.70;1.00;;;;;;4884535;29;20581;-91
2021/01/21 10:52:31;;;;;;;8.73;3.00;;;7.70;1.00;;;;;;4883796;29;20780;-91
2021/01/21 10:55:00;;;;;;;5.40;2.50;;;7.70;1.00;;;;;;4883935;29;20548;-92
2021/01/21 10:57:31;;;;;;;6.73;2.63;;;7.50;1.00;;;;;;4882949;29;20549;-91
2021/01/21 11:03:27;;;;;;;3.97;2.40;;;7.70;1.00;;;;;;4878275;29;20947;-91
2021/01/21 11:05:56;;;;;;;5.50;2.23;;;7.60;1.00;;;;;;4883949;29;20502;-91
2021/01/21 11:08:25;;;;;;;6.23;2.60;;;7.70;1.00;;;;;;4883118;29;20481;-92
2021/01/21 11:10:52;;;;;;;3.90;2.50;;;8.10;1.00;;;;;;4883522;29;20549;-91
2021/01/21 11:13:19;;;;;;;11.73;2.57;;;8.30;1.00;;;;;;4883580;29;20482;-91
2021/01/21 11:15:46;;;;;;;4.97;2.80;;;8.50;1.00;;;;;;4883709;29;20490;-91
2021/01/21 11:18:13;;;;;;;3.53;2.27;;;8.70;1.00;;;;;;4883813;29;20483;-91
2021/01/21 11:20:40;;;;;;;4.77;2.80;;;9.20;1.00;;;;;;4884164;29;20453;-91
2021/01/21 11:23:08;;;;;;;10.60;2.97;;;9.30;1.00;;;;;;4883696;29;20596;-91
2021/01/21 11:25:36;;;;;;;3.50;2.70;;;9.10;1.00;;;;;;4883083;29;20463;-91
2021/01/21 11:28:03;;;;;;;5.70;3.00;;;8.70;1.00;;;;;;4880008;29;20497;-92
2021/01/21 11:30:31;;;;;;;9.93;3.20;;;8.50;1.00;;;;;;4883345;29;20582;-91
2021/01/21 11:33:53;;;;;;;5.93;2.50;;;8.30;1.00;;;;;;4883236;29;20482;-91
2021/01/21 12:51:01;;;;;;;3.43;1.90;;;8.00;1.00;;;;;;4881023;29;20526;-90
2021/01/21 12:53:28;;;;;;;6.40;2.30;;;8.00;1.00;;;;;;4883433;29;20992;-91
2021/01/21 12:55:55;;;;;;;2.57;2.37;;;7.90;1.00;;;;;;4882422;29;20570;-90
2021/01/21 12:58:22;;;;;;;5.13;2.30;;;7.80;1.00;;;;;;4883261;29;20549;-90
2021/01/21 13:00:48;;;;;;;3.60;1.97;;;7.80;1.00;;;;;;4883022;29;20926;-90
2021/01/21 13:03:16;;;;;;;3.03;2.20;;;7.70;1.00;;;;;;4883113;29;20604;-90
2021/01/21 13:05:43;;;;;;;3.20;2.00;;;7.70;1.00;;;;;;4883200;29;20482;-90
2021/01/21 13:08:13;;;;;;;3.27;2.20;;;7.70;1.00;;;;;;4883270;29;20510;-90
2021/01/21 13:10:40;;;;;;;4.70;2.07;;;7.80;1.00;;;;;;4882793;29;20501;-90
2021/01/21 13:13:09;;;;;;;4.13;2.43;;;7.90;1.00;;;;;;4883203;29;20567;-90
2021/01/21 13:15:36;;;;;;;3.50;2.27;;;7.90;1.00;;;;;;4883406;29;20466;-90
2021/01/21 13:18:03;;;;;;;4.10;2.07;;;7.90;1.00;;;;;;4883212;29;20470;-91
2021/01/21 13:20:31;;;;;;;3.37;2.30;;;8.00;1.00;;;;;;4882306;29;20485;-90
2021/01/21 13:22:58;;;;;;;2.23;1.90;;;8.10;1.00;;;;;;4882663;29;20629;-90
2021/01/21 13:25:26;;;;;;;2.50;2.23;;;8.00;1.00;;;;;;4882545;29;20570;-90
2021/01/21 13:27:53;;;;;;;3.70;2.20;;;8.10;1.00;;;;;;4877137;29;20506;-91
2021/01/21 13:30:20;;;;;;;6.00;2.40;;;8.00;1.00;;;;;;4882469;29;20457;-90
2021/01/21 13:32:47;;;;;;;3.87;3.47;;;8.00;1.00;;;;;;4885520;29;20880;-91
2021/01/21 13:35:14;;;;;;;5.50;3.47;;;7.90;1.00;;;;;;4886360;29;20477;-90
2021/01/21 13:37:41;;;;;;;3.20;1.70;;;7.90;1.00;;;;;;4883856;29;20502;-90
2021/01/21 13:40:09;;;;;;;5.40;3.03;;;7.90;1.00;;;;;;4885756;29;20482;-90
2021/01/21 13:42:38;;;;;;;4.03;2.00;;;7.90;1.00;;;;;;4879909;29;20971;-91
2021/01/21 13:45:06;;;;;;;9.97;2.27;;;7.90;1.00;;;;;;4880777;29;20525;-90
2021/01/21 13:47:33;;;;;;;3.37;1.80;;;7.90;1.00;;;;;;4886096;29;20549;-90
2021/01/21 13:50:00;;;;;;;4.30;2.10;;;7.90;1.00;;;;;;4885797;29;20506;-91
2021/01/21 13:52:30;;;;;;;4.73;2.17;;;7.90;1.00;;;;;;4885599;29;20526;-90
2021/01/21 13:55:00;;;;;;;4.00;2.20;;;7.90;1.00;;;;;;4885895;29;20506;-91
2021/01/21 13:57:26;;;;;;;6.47;3.50;;;7.90;1.00;;;;;;4867941;29;20507;-90
2021/01/21 13:59:54;;;;;;;17.73;8.70;;;7.90;1.00;;;;;;4867567;29;20932;-90
2021/01/21 14:02:21;;;;;;;14.90;8.10;;;7.90;1.00;;;;;;4868059;29;20510;-90
2021/01/21 14:04:51;;;;;;;4.90;3.20;;;7.90;1.00;;;;;;4867355;29;20878;-90
2021/01/21 14:07:20;;;;;;;4.63;2.13;;;8.00;1.00;;;;;;4867483;29;20819;-90
2021/01/21 14:09:47;;;;;;;4.20;2.33;;;7.90;1.00;;;;;;4862574;29;20481;-90
2021/01/21 14:12:14;;;;;;;4.17;2.80;;;8.00;1.00;;;;;;4867479;29;20489;-91
2021/01/21 14:14:41;;;;;;;4.60;2.13;;;7.90;1.00;;;;;;4867517;29;20503;-91
2021/01/21 14:17:11;;;;;;;4.30;2.33;;;7.90;1.00;;;;;;4866545;29;20468;-90
2021/01/21 14:19:37;;;;;;;5.20;2.50;;;7.90;1.00;;;;;;4868065;29;20770;-91
2021/01/21 14:22:05;;;;;;;8.50;3.00;;;7.90;1.00;;;;;;4869339;29;20561;-90
2021/01/21 14:24:33;;;;;;;3.93;2.33;;;7.90;1.00;;;;;;4868606;29;20491;-90
2021/01/21 14:27:00;;;;;;;2.90;2.10;;;7.90;1.00;;;;;;4866321;29;20532;-90
2021/01/21 14:29:27;;;;;;;3.90;2.17;;;7.90;1.00;;;;;;4867941;29;20472;-90
2021/01/21 14:32:07;;;;;;;4.97;2.13;;;8.00;1.00;;;;;;4872803;29;20538;-91
2021/01/21 14:35:43;;;;;;;5.80;2.20;;;7.90;1.00;;;;;;4867420;29;20740;-92
2021/01/21 14:47:47;;;;;;;5.00;1.93;;;7.80;1.00;;;;;;4888153;29;20517;-92
2021/01/21 16:05:45;;;;;;;7.73;2.20;;;7.20;1.00;;;;;;655775;23;22147;-91
2021/01/21 16:09:11;;;;;;;5.30;2.27;;;7.20;1.00;;;;;;4870793;29;20490;-92
2021/01/21 16:14:40;;;;;;;5.00;2.30;;;7.20;1.00;;;;;;4876444;29;20523;-92
2021/01/21 16:20:25;;;;;;;5.73;2.77;;;7.20;1.00;;;;;;4871235;29;20561;-92
2021/01/21 16:23:07;;;;;;;4.17;2.30;;;7.20;1.00;;;;;;4872934;29;20471;-92
2021/01/21 16:28:29;;;;;;;4.13;2.37;;;7.30;1.00;;;;;;4871991;29;20482;-92
2021/01/21 16:33:48;;;;;;;7.23;2.43;;;7.30;1.00;;;;;;4871057;29;20519;-92
2021/01/21 16:36:38;;;;;;;7.80;2.90;;;7.30;1.00;;;;;;4864664;29;20466;-92
2021/01/21 16:41:57;;;;;;;3.20;2.40;;;7.30;1.00;;;;;;4871751;29;20471;-92
2021/01/21 16:47:13;;;;;;;4.70;2.97;;;7.20;1.00;;;;;;4871250;29;20476;-92
2021/01/21 16:52:33;;;;;;;9.53;3.43;;;7.30;1.00;;;;;;4871355;29;20875;-92
2021/01/21 16:55:12;;;;;;;3.70;3.03;;;7.20;1.00;;;;;;4870724;29;20467;-92
2021/01/21 16:57:55;;;;;;;6.73;3.00;;;7.20;1.00;;;;;;4873722;29;20461;-91
2021/01/21 17:00:42;;;;;;;7.27;3.90;;;7.20;1.00;;;;;;4871176;29;20459;-91
2021/01/21 17:03:12;;;;;;;15.67;9.27;;;7.30;1.00;;;;;;4854396;29;20555;-92
2021/01/21 17:05:51;;;;;;;7.20;3.90;;;7.30;1.00;;;;;;4848526;29;20480;-92
2021/01/21 17:08:23;;;;;;;8.93;5.23;;;7.30;1.00;;;;;;4846456;29;20511;-92
2021/01/21 17:10:55;;;;;;;6.67;3.07;;;7.20;1.00;;;;;;4844856;29;20499;-91
2021/01/21 17:13:33;;;;;;;6.63;4.30;;;7.30;1.00;;;;;;4849059;29;20478;-92
2021/01/21 17:16:06;;;;;;;15.67;11.63;;;7.20;1.00;;;;;;4849758;29;20489;-92
2021/01/21 18:18:32;;;;;;;12.20;4.53;;;7.30;1.00;;;;;;4842862;29;20571;-92
2021/01/21 23:49:12;;;;;;;2.20;2.00;;;9.20;57.30;;;;;;4810292;29;20440;-92
2021/01/21 23:54:33;;;;;;;2.27;2.07;;;9.10;95.00;;;;;;4810042;29;20520;-91
